createdAt,value
2019-05-07T00:01:09.015Z,9.31
2019-05-07T00:03:42.172Z,9.31
2019-05-07T00:06:14.255Z,9.31
2019-05-07T00:08:46.186Z,9.30
2019-05-07T00:11:18.203Z,9.27
2019-05-07T00:13:52.274Z,9.25
2019-05-07T00:16:23.746Z,9.23
2019-05-07T00:18:55.702Z,9.20
2019-05-07T00:21:27.990Z,9.17
2019-05-07T00:24:02.248Z,9.16
2019-05-07T00:26:33.931Z,9.14
2019-05-07T00:29:05.865Z,9.12
2019-05-07T00:31:41.978Z,9.08
2019-05-07T00:34:15.653Z,9.06
2019-05-07T00:36:52.583Z,9.06
2019-05-07T00:39:38.474Z,9.04
2019-05-07T00:42:22.100Z,9.02
2019-05-07T00:45:14.183Z,9.00
2019-05-07T00:47:34.967Z,8.98
2019-05-07T00:50:22.513Z,8.98
2019-05-07T00:52:54.648Z,8.97
2019-05-07T00:55:26.576Z,8.95
2019-05-07T00:57:58.509Z,8.96
2019-05-07T01:00:30.568Z,8.94
2019-05-07T01:03:04.181Z,8.90
2019-05-07T01:05:45.627Z,8.89
2019-05-07T01:08:17.640Z,8.85
2019-05-07T01:10:49.612Z,8.84
2019-05-07T01:13:23.391Z,8.83
2019-05-07T01:15:55.214Z,8.82
2019-05-07T01:18:27.151Z,8.81
2019-05-07T01:20:59.117Z,8.79
2019-05-07T01:23:32.246Z,8.78
2019-05-07T01:26:04.604Z,8.77
2019-05-07T01:28:47.093Z,8.77
2019-05-07T01:31:19.021Z,8.76
2019-05-07T01:33:55.270Z,8.75
2019-05-07T01:36:27.215Z,8.73
2019-05-07T01:38:59.158Z,8.70
2019-05-07T01:41:32.681Z,8.69
2019-05-07T01:44:04.965Z,8.66
2019-05-07T01:46:36.904Z,8.64
2019-05-07T01:49:08.858Z,8.61
2019-05-07T01:51:42.289Z,8.59
2019-05-07T01:54:15.430Z,8.58
2019-05-07T01:56:47.353Z,8.57
2019-05-07T01:59:19.923Z,8.56
2019-05-07T02:01:53.512Z,8.54
2019-05-07T02:04:39.308Z,8.51
2019-05-07T02:07:15.867Z,8.51
2019-05-07T02:09:52.150Z,8.49
2019-05-07T02:12:31.924Z,8.48
2019-05-07T02:15:06.034Z,8.47
2019-05-07T02:17:37.967Z,8.45
2019-05-07T02:20:13.049Z,8.44
2019-05-07T02:22:45.168Z,8.41
2019-05-07T02:25:17.511Z,8.40
2019-05-07T02:27:49.460Z,8.35
2019-05-07T02:30:23.925Z,8.34
2019-05-07T02:32:55.390Z,8.31
2019-05-07T02:35:27.345Z,8.30
2019-05-07T02:38:03.577Z,8.27
2019-05-07T02:40:54.522Z,8.25
2019-05-07T02:43:26.522Z,8.24
2019-05-07T02:46:21.422Z,8.24
2019-05-07T02:48:53.416Z,8.24
2019-05-07T02:51:25.822Z,8.22
2019-05-07T02:54:08.163Z,8.20
2019-05-07T02:56:43.022Z,8.18
2019-05-07T02:59:13.917Z,8.17
2019-05-07T03:01:45.844Z,8.14
2019-05-07T03:04:17.790Z,8.13
2019-05-07T03:06:49.794Z,8.11
2019-05-07T03:09:22.772Z,8.08
2019-05-07T03:11:54.885Z,8.06
2019-05-07T03:14:26.799Z,8.05
2019-05-07T03:16:58.814Z,8.03
2019-05-07T03:19:33.285Z,8.03
2019-05-07T03:22:05.233Z,8.02
2019-05-07T03:24:38.803Z,8.00
2019-05-07T03:27:13.843Z,7.98
2019-05-07T03:29:46.251Z,7.98
2019-05-07T03:32:27.431Z,7.97
2019-05-07T03:35:16.161Z,7.95
2019-05-07T03:37:47.245Z,7.95
2019-05-07T03:40:19.480Z,7.95
2019-05-07T03:42:53.539Z,7.95
2019-05-07T03:45:26.767Z,7.97
2019-05-07T03:48:15.389Z,7.97
2019-05-07T03:50:47.376Z,7.99
2019-05-07T03:53:22.706Z,7.99
2019-05-07T03:55:54.096Z,8.02
2019-05-07T03:58:26.163Z,8.07
2019-05-07T04:00:58.110Z,8.11
2019-05-07T04:03:33.531Z,8.13
2019-05-07T04:06:04.222Z,8.18
2019-05-07T04:08:36.421Z,8.30
2019-05-07T04:11:08.367Z,8.47
2019-05-07T04:13:40.286Z,8.67
2019-05-07T04:16:13.629Z,8.88
2019-05-07T04:18:45.921Z,9.08
2019-05-07T04:21:17.933Z,9.26
2019-05-07T04:23:54.161Z,9.43
2019-05-07T04:26:26.823Z,9.58
2019-05-07T04:29:05.636Z,9.72
2019-05-07T04:31:37.042Z,9.85
2019-05-07T04:34:13.175Z,9.98
2019-05-07T04:36:45.906Z,10.11
2019-05-07T04:39:17.840Z,10.23
2019-05-07T04:41:52.828Z,10.30
2019-05-07T04:44:23.755Z,10.42
2019-05-07T04:46:55.849Z,10.51
2019-05-07T04:49:27.783Z,10.60
2019-05-07T04:52:03.973Z,10.68
2019-05-07T04:54:35.069Z,10.75
2019-05-07T04:57:08.629Z,10.82
2019-05-07T04:59:42.752Z,10.86
2019-05-07T05:02:15.935Z,10.90
2019-05-07T05:04:47.917Z,10.96
2019-05-07T05:07:22.415Z,11.00
2019-05-07T05:09:53.817Z,11.05
2019-05-07T05:12:25.745Z,11.09
2019-05-07T05:14:57.700Z,11.17
2019-05-07T05:17:31.908Z,11.23
2019-05-07T05:20:04.476Z,11.29
2019-05-07T05:22:50.666Z,11.35
2019-05-07T05:25:24.854Z,11.35
2019-05-07T05:27:56.786Z,11.36
2019-05-07T05:30:32.834Z,11.38
2019-05-07T05:33:05.042Z,11.42
2019-05-07T05:35:37.957Z,11.46
2019-05-07T05:38:11.984Z,11.52
2019-05-07T05:40:43.569Z,11.55
2019-05-07T05:43:17.227Z,11.27
2019-05-07T05:45:52.906Z,11.57
2019-05-07T05:48:24.526Z,11.57
2019-05-07T05:51:13.099Z,11.58
2019-05-07T05:53:49.609Z,11.57
2019-05-07T05:56:23.201Z,11.59
2019-05-07T05:59:05.697Z,11.63
2019-05-07T06:01:52.171Z,11.67
2019-05-07T06:04:42.116Z,11.70
2019-05-07T06:07:22.657Z,11.70
2019-05-07T06:10:12.832Z,11.74
2019-05-07T06:12:46.828Z,11.83
2019-05-07T06:15:34.254Z,11.88
2019-05-07T06:18:20.376Z,11.89
2019-05-07T06:20:43.825Z,11.95
2019-05-07T06:23:17.407Z,12.03
2019-05-07T06:25:52.169Z,12.14
2019-05-07T06:28:23.029Z,12.17
2019-05-07T06:30:54.983Z,12.18
2019-05-07T06:33:27.322Z,12.24
2019-05-07T06:35:59.263Z,12.30
2019-05-07T06:38:33.192Z,12.30
2019-05-07T06:41:23.374Z,12.31
2019-05-07T06:43:57.018Z,12.32
2019-05-07T06:46:28.973Z,12.36
2019-05-07T06:49:02.166Z,12.41
2019-05-07T06:51:34.243Z,12.28
2019-05-07T06:54:06.268Z,12.24
2019-05-07T06:56:38.212Z,12.36
2019-05-07T06:59:14.892Z,12.49
2019-05-07T07:01:52.967Z,12.54
2019-05-07T07:04:26.742Z,12.58
2019-05-07T07:07:22.480Z,12.57
2019-05-07T07:09:48.128Z,12.65
2019-05-07T07:12:26.072Z,12.73
2019-05-07T07:14:58.263Z,12.79
2019-05-07T07:17:32.452Z,12.78
2019-05-07T07:20:06.600Z,12.81
2019-05-07T07:22:38.543Z,12.77
2019-05-07T07:25:11.940Z,12.64
2019-05-07T07:27:44.106Z,12.56
2019-05-07T07:30:27.375Z,12.55
2019-05-07T07:33:02.815Z,12.56
2019-05-07T07:35:34.618Z,12.53
2019-05-07T07:38:24.630Z,12.50
2019-05-07T07:40:58.369Z,12.53
2019-05-07T07:43:32.393Z,12.59
2019-05-07T07:46:04.508Z,12.64
2019-05-07T07:48:36.836Z,12.76
2019-05-07T07:51:08.845Z,12.87
2019-05-07T07:53:42.493Z,12.91
2019-05-07T07:56:25.375Z,12.88
2019-05-07T07:59:12.528Z,12.84
2019-05-07T08:02:01.917Z,12.92
2019-05-07T08:04:34.037Z,13.10
2019-05-07T08:07:06.900Z,13.16
2019-05-07T08:09:39.054Z,13.21
2019-05-07T08:12:12.736Z,13.33
2019-05-07T08:14:44.675Z,13.50
2019-05-07T08:17:17.313Z,13.55
2019-05-07T08:20:05.484Z,13.52
2019-05-07T08:22:37.522Z,13.49
2019-05-07T08:25:16.563Z,13.50
2019-05-07T08:27:53.827Z,13.38
2019-05-07T08:30:32.613Z,13.21
2019-05-07T08:33:09.828Z,13.04
2019-05-07T08:35:44.036Z,12.89
2019-05-07T08:38:16.975Z,12.90
2019-05-07T08:40:49.305Z,13.01
2019-05-07T08:43:21.832Z,13.16
2019-05-07T08:45:58.685Z,13.32
2019-05-07T08:48:36.928Z,13.48
2019-05-07T08:51:11.778Z,13.59
2019-05-07T08:53:47.659Z,13.68
2019-05-07T08:56:19.633Z,13.70
2019-05-07T08:58:52.656Z,13.67
2019-05-07T09:01:26.116Z,13.62
2019-05-07T09:03:58.534Z,13.62
2019-05-07T09:06:33.793Z,13.71
2019-05-07T09:09:22.254Z,13.84
2019-05-07T09:11:54.342Z,13.91
2019-05-07T09:14:26.395Z,13.91
2019-05-07T09:16:58.360Z,13.79
2019-05-07T09:19:32.239Z,13.66
2019-05-07T09:22:04.786Z,13.74
2019-05-07T09:24:37.157Z,13.93
2019-05-07T09:27:14.678Z,14.14
2019-05-07T09:30:04.499Z,14.25
2019-05-07T09:32:42.438Z,14.32
2019-05-07T09:35:16.113Z,14.42
2019-05-07T09:37:48.451Z,14.46
2019-05-07T09:40:21.723Z,14.53
2019-05-07T09:42:53.804Z,14.55
2019-05-07T09:45:25.903Z,14.58
2019-05-07T09:47:58.217Z,14.53
2019-05-07T09:50:32.314Z,14.38
2019-05-07T09:53:03.851Z,13.99
2019-05-07T09:55:39.074Z,14.30
2019-05-07T09:58:12.530Z,14.39
2019-05-07T10:00:44.750Z,14.42
2019-05-07T10:03:16.831Z,14.40
2019-05-07T10:05:52.445Z,14.30
2019-05-07T10:08:24.769Z,14.20
2019-05-07T10:10:56.858Z,14.21
2019-05-07T10:13:33.385Z,14.24
2019-05-07T10:16:07.647Z,14.23
2019-05-07T10:18:43.052Z,14.11
2019-05-07T10:21:15.125Z,14.15
2019-05-07T10:23:47.130Z,14.25
2019-05-07T10:26:19.835Z,14.32
2019-05-07T10:32:24.736Z,14.60
2019-05-07T10:35:43.540Z,14.64
2019-05-07T10:38:15.715Z,14.64
2019-05-07T10:40:47.868Z,14.66
2019-05-07T10:43:28.017Z,14.69
2019-05-07T10:46:18.093Z,14.78
2019-05-07T10:49:12.174Z,14.81
2019-05-07T10:51:43.609Z,14.87
2019-05-07T10:54:15.644Z,14.95
2019-05-07T10:56:52.322Z,15.05
2019-05-07T10:59:25.559Z,15.14
2019-05-07T11:02:02.529Z,15.12
2019-05-07T11:04:42.241Z,14.96
2019-05-07T11:07:08.786Z,14.87
2019-05-07T11:09:42.187Z,14.91
2019-05-07T11:12:14.236Z,14.96
2019-05-07T11:14:46.668Z,14.98
2019-05-07T11:17:26.435Z,14.92
2019-05-07T11:19:58.449Z,14.89
2019-05-07T11:22:32.312Z,14.93
2019-05-07T11:25:06.627Z,15.05
2019-05-07T11:27:38.789Z,15.11
2019-05-07T11:30:12.616Z,15.17
2019-05-07T11:32:44.727Z,15.19
2019-05-07T11:35:16.896Z,15.22
2019-05-07T11:37:48.932Z,15.18
2019-05-07T11:40:24.148Z,15.15
2019-05-07T11:42:57.782Z,15.13
2019-05-07T11:45:43.336Z,15.08
2019-05-07T11:48:16.723Z,15.03
2019-05-07T11:51:01.511Z,14.99
2019-05-07T11:53:59.217Z,14.86
2019-05-07T11:56:32.791Z,14.56
2019-05-07T11:59:08.449Z,14.47
2019-05-07T12:01:47.116Z,14.55
2019-05-07T12:04:20.534Z,14.65
2019-05-07T12:07:45.935Z,14.74
2019-05-07T12:10:05.035Z,14.77
2019-05-07T12:12:38.825Z,14.82
2019-05-07T12:15:12.467Z,14.86
2019-05-07T12:17:44.610Z,14.76
2019-05-07T12:20:17.733Z,14.74
2019-05-07T12:22:52.470Z,14.73
2019-05-07T12:25:24.628Z,14.70
2019-05-07T12:27:57.699Z,14.70
2019-05-07T12:30:33.535Z,14.78
2019-05-07T12:33:12.279Z,14.87
2019-05-07T12:35:44.168Z,14.97
2019-05-07T12:38:16.348Z,15.01
2019-05-07T12:41:05.241Z,15.06
2019-05-07T12:46:57.960Z,15.18
2019-05-07T12:49:35.478Z,15.08
2019-05-07T13:01:23.951Z,14.72
2019-05-07T13:04:03.148Z,14.62
2019-05-07T13:06:36.830Z,14.56
2019-05-07T13:09:09.663Z,14.64
2019-05-07T13:11:42.499Z,14.71
2019-05-07T13:14:15.990Z,14.78
2019-05-07T13:16:48.298Z,14.71
2019-05-07T13:19:22.537Z,14.61
2019-05-07T13:21:54.288Z,14.49
2019-05-07T13:24:26.770Z,14.25
2019-05-07T13:26:58.748Z,14.04
2019-05-07T13:29:32.463Z,13.84
2019-05-07T13:32:05.923Z,13.63
2019-05-07T13:34:38.970Z,13.56
2019-05-07T13:37:22.911Z,13.45
2019-05-07T13:39:56.992Z,13.45
2019-05-07T13:42:41.946Z,13.51
2019-05-07T13:45:33.350Z,13.49
2019-05-07T13:48:07.337Z,13.54
2019-05-07T13:50:41.880Z,13.63
2019-05-07T13:53:13.896Z,13.73
2019-05-07T13:55:46.369Z,13.78
2019-05-07T13:58:18.781Z,13.85
2019-05-07T14:00:55.535Z,13.92
2019-05-07T14:03:27.923Z,13.95
2019-05-07T14:06:01.722Z,14.00
2019-05-07T14:08:35.691Z,14.02
2019-05-07T14:11:07.634Z,14.00
2019-05-07T14:13:43.385Z,14.02
2019-05-07T14:16:14.084Z,14.08
2019-05-07T14:18:46.468Z,14.03
2019-05-07T14:21:18.407Z,14.13
2019-05-07T14:23:52.136Z,14.18
2019-05-07T14:26:24.289Z,14.27
2019-05-07T14:28:56.230Z,14.41
2019-05-07T14:31:28.255Z,14.49
2019-05-07T14:34:04.329Z,14.57
2019-05-07T14:36:43.679Z,14.60
2019-05-07T14:39:15.621Z,14.67
2019-05-07T14:41:51.921Z,14.71
2019-05-07T14:44:25.296Z,14.78
2019-05-07T14:46:57.421Z,14.70
2019-05-07T14:49:29.429Z,14.63
2019-05-07T14:52:02.767Z,14.61
2019-05-07T14:54:35.174Z,14.64
2019-05-07T14:57:07.834Z,14.69
2019-05-07T14:59:39.872Z,14.68
2019-05-07T15:02:12.191Z,14.64
2019-05-07T15:04:44.463Z,14.67
2019-05-07T15:10:08.831Z,14.88
2019-05-07T15:12:42.627Z,14.93
2019-05-07T15:15:15.520Z,14.88
2019-05-07T15:17:52.458Z,14.83
2019-05-07T15:20:24.685Z,14.80
2019-05-07T15:22:58.602Z,14.74
2019-05-07T15:25:32.067Z,14.64
2019-05-07T15:28:04.297Z,14.59
2019-05-07T15:30:38.418Z,14.59
2019-05-07T15:33:12.631Z,14.53
2019-05-07T15:35:44.518Z,14.05
2019-05-07T15:38:16.499Z,14.45
2019-05-07T15:40:49.152Z,14.46
2019-05-07T15:43:23.575Z,14.49
2019-05-07T15:45:55.584Z,14.54
2019-05-07T15:48:27.682Z,14.54
2019-05-07T15:50:59.976Z,14.61
2019-05-07T15:53:52.378Z,14.73
2019-05-07T15:56:24.520Z,14.83
2019-05-07T15:58:56.770Z,14.89
2019-05-07T16:01:28.800Z,14.94
2019-05-07T16:04:02.766Z,14.95
2019-05-07T16:06:34.441Z,14.91
2019-05-07T16:09:08.928Z,14.88
2019-05-07T16:11:43.067Z,14.84
2019-05-07T16:14:16.207Z,14.78
2019-05-07T16:16:48.297Z,14.75
2019-05-07T16:19:28.304Z,14.71
2019-05-07T16:22:03.792Z,14.65
2019-05-07T16:24:36.003Z,14.58
2019-05-07T16:27:08.249Z,14.44
2019-05-07T16:29:42.115Z,14.32
2019-05-07T16:32:14.179Z,14.18
2019-05-07T16:34:46.177Z,14.07
2019-05-07T16:37:18.194Z,14.01
2019-05-07T16:39:50.184Z,13.96
2019-05-07T16:42:22.487Z,13.97
2019-05-07T16:44:54.502Z,13.97
2019-05-07T16:47:26.781Z,14.02
2019-05-07T16:49:58.809Z,14.07
2019-05-07T16:52:34.764Z,14.12
2019-05-07T16:55:06.422Z,14.11
2019-05-07T16:57:42.232Z,14.12
2019-05-07T17:00:16.766Z,14.15
2019-05-07T17:02:51.635Z,14.17
2019-05-07T17:05:24.404Z,14.18
2019-05-07T17:08:02.498Z,14.21
2019-05-07T17:10:34.893Z,14.27
2019-05-07T17:13:09.781Z,14.38
2019-05-07T17:15:56.998Z,14.43
2019-05-07T17:18:32.372Z,14.44
2019-05-07T17:21:03.773Z,14.50
2019-05-07T17:23:44.040Z,14.48
2019-05-07T17:26:11.596Z,14.43
2019-05-07T17:28:43.067Z,14.34
2019-05-07T17:31:15.017Z,14.25
2019-05-07T17:33:46.953Z,14.19
2019-05-07T17:36:19.065Z,14.16
2019-05-07T17:38:51.964Z,14.12
2019-05-07T17:41:27.204Z,14.07
2019-05-07T17:43:57.794Z,14.04
2019-05-07T17:46:32.403Z,14.01
2019-05-07T17:49:04.192Z,13.89
2019-05-07T17:51:45.839Z,13.83
2019-05-07T17:54:18.117Z,13.80
2019-05-07T17:56:50.060Z,13.77
2019-05-07T17:59:22.005Z,13.75
2019-05-07T18:02:07.602Z,13.70
2019-05-07T18:04:50.445Z,13.68
2019-05-07T18:07:14.063Z,13.63
2019-05-07T18:09:46.322Z,13.59
2019-05-07T18:12:18.793Z,13.54
2019-05-07T18:14:52.777Z,13.49
2019-05-07T18:17:33.641Z,13.49
2019-05-07T18:20:07.436Z,13.45
2019-05-07T18:22:39.532Z,13.41
2019-05-07T18:25:13.226Z,13.37
2019-05-07T18:27:45.240Z,13.30
2019-05-07T18:30:17.701Z,13.25
2019-05-07T18:32:52.019Z,13.22
2019-05-07T18:35:24.087Z,13.19
2019-05-07T18:37:56.346Z,13.16
2019-05-07T18:40:29.242Z,13.14
2019-05-07T18:43:03.058Z,13.09
2019-05-07T18:45:36.353Z,13.05
2019-05-07T18:48:08.364Z,13.03
2019-05-07T18:50:41.948Z,13.02
2019-05-07T18:53:13.948Z,13.01
2019-05-07T18:55:45.937Z,13.01
2019-05-07T18:58:18.066Z,13.00
2019-05-07T19:01:02.532Z,13.00
2019-05-07T19:03:34.818Z,12.96
2019-05-07T19:06:07.712Z,12.95
2019-05-07T19:08:42.079Z,12.94
2019-05-07T19:11:14.514Z,12.91
2019-05-07T19:13:48.334Z,12.90
2019-05-07T19:16:22.889Z,12.84
2019-05-07T19:18:54.347Z,12.78
2019-05-07T19:21:26.300Z,12.72
2019-05-07T19:23:58.322Z,12.65
2019-05-07T19:26:30.336Z,12.57
2019-05-07T19:29:02.652Z,12.49
2019-05-07T19:31:34.809Z,12.44
2019-05-07T19:34:06.922Z,12.50
2019-05-07T19:36:38.921Z,12.53
2019-05-07T19:39:12.642Z,12.53
2019-05-07T19:41:45.060Z,12.51
2019-05-07T19:44:17.431Z,12.50
2019-05-07T19:46:49.705Z,12.48
2019-05-07T19:49:21.667Z,12.46
2019-05-07T19:51:53.746Z,12.45
2019-05-07T19:54:25.690Z,12.42
2019-05-07T19:56:58.235Z,12.40
2019-05-07T19:59:32.473Z,12.36
2019-05-07T20:02:06.194Z,12.34
2019-05-07T20:04:38.149Z,12.31
2019-05-07T20:07:12.095Z,12.31
2019-05-07T20:09:43.737Z,12.26
2019-05-07T20:12:15.677Z,12.22
2019-05-07T20:14:47.902Z,12.19
2019-05-07T20:17:22.066Z,12.18
2019-05-07T20:19:53.541Z,12.17
2019-05-07T20:22:25.481Z,12.15
2019-05-07T20:24:57.490Z,12.10
2019-05-07T20:27:29.560Z,12.09
2019-05-07T20:30:03.163Z,12.06
2019-05-07T20:32:35.312Z,12.03
2019-05-07T20:35:07.905Z,12.01
2019-05-07T20:37:41.813Z,11.98
2019-05-07T20:40:13.844Z,11.94
2019-05-07T20:42:45.795Z,11.91
2019-05-07T20:45:18.792Z,11.88
2019-05-07T20:47:52.359Z,11.86
2019-05-07T20:50:24.638Z,11.83
2019-05-07T20:52:56.581Z,11.80
2019-05-07T20:55:33.993Z,11.78
2019-05-07T20:58:06.244Z,11.75
2019-05-07T21:00:38.206Z,11.72
2019-05-07T21:03:23.790Z,11.69
2019-05-07T21:05:56.287Z,11.63
2019-05-07T21:08:28.314Z,11.61
2019-05-07T21:11:02.367Z,11.57
2019-05-07T21:13:34.949Z,11.54
2019-05-07T21:16:07.008Z,11.52
2019-05-07T21:18:39.306Z,11.49
2019-05-07T21:21:12.461Z,11.46
2019-05-07T21:23:44.787Z,11.42
2019-05-07T21:26:16.719Z,11.38
2019-05-07T21:28:48.665Z,11.35
2019-05-07T21:31:22.698Z,11.33
2019-05-07T21:33:54.270Z,11.28
2019-05-07T21:36:26.575Z,11.25
2019-05-07T21:38:58.985Z,11.22
2019-05-07T21:41:33.241Z,11.18
2019-05-07T21:44:04.584Z,11.13
2019-05-07T21:46:36.551Z,11.08
2019-05-07T21:49:08.491Z,11.02
2019-05-07T21:51:40.433Z,10.99
2019-05-07T21:54:30.759Z,10.97
2019-05-07T21:57:22.033Z,10.92
2019-05-07T21:59:56.174Z,10.88
2019-05-07T22:02:28.192Z,10.84
2019-05-07T22:05:02.502Z,10.83
2019-05-07T22:07:34.175Z,10.80
2019-05-07T22:10:09.593Z,10.78
2019-05-07T22:12:41.618Z,10.75
2019-05-07T22:15:14.533Z,10.73
2019-05-07T22:17:46.516Z,10.72
2019-05-07T22:20:19.910Z,10.72
2019-05-07T22:22:52.264Z,10.71
2019-05-07T22:25:24.570Z,10.70
2019-05-07T22:27:56.475Z,10.68
2019-05-07T22:30:46.480Z,10.67
2019-05-07T22:33:23.014Z,10.64
2019-05-07T22:35:55.430Z,10.61
2019-05-07T22:38:27.745Z,10.60
2019-05-07T22:41:02.035Z,10.57
2019-05-07T22:43:33.363Z,10.55
2019-05-07T22:46:05.381Z,10.52
2019-05-07T22:48:37.313Z,10.48
2019-05-07T22:51:09.575Z,10.44
2019-05-07T22:53:41.518Z,10.41
2019-05-07T22:56:14.179Z,10.37
2019-05-07T22:58:53.887Z,10.37
2019-05-07T23:01:25.844Z,10.36
2019-05-07T23:03:57.772Z,10.36
2019-05-07T23:06:29.773Z,10.37
2019-05-07T23:09:02.055Z,10.36
2019-05-07T23:11:34.060Z,10.37
2019-05-07T23:14:05.987Z,10.37
2019-05-07T23:16:37.924Z,10.36
2019-05-07T23:19:13.930Z,10.34
2019-05-07T23:21:43.838Z,10.30
2019-05-07T23:24:15.772Z,10.28
2019-05-07T23:26:50.582Z,10.25
2019-05-07T23:29:22.617Z,10.23
2019-05-07T23:31:55.340Z,10.20
2019-05-07T23:34:27.452Z,10.16
2019-05-07T23:37:02.410Z,10.14
2019-05-07T23:39:35.905Z,10.13
2019-05-07T23:42:15.140Z,10.12
2019-05-07T23:44:47.085Z,10.08
2019-05-07T23:47:19.029Z,10.07
2019-05-07T23:49:52.385Z,10.06
2019-05-07T23:52:24.579Z,10.06
2019-05-07T23:54:56.526Z,10.05
2019-05-07T23:57:28.452Z,10.03
